Latest Coastal Weather Observations for Creal Reef

IDQ60701

Issued at 3:05 pm EST Wednesday 30 July 2014 (issued every 10 minutes, with the page automatically refreshed every 10 minutes)

About coastal observations | Map of coastal stations | Coastal observations for QLD | Marine services | Other Formats
Station Details ID: 200736 Name: CREAL REEF Lat: -20.53 Lon: 150.38 Height: 1.7 m
Data from the previous 72 hours. | See also: Recent months for locations in Queensland
Date/Time
EST
Temp

°C
Wind Pressure Rain
since 9am
mm
Weather Cloud Vis
km
Sea
Height
m
Swell
Dir
 
Speed
knots
Gust
knots
hPa Trend Height
m
Period
s
Dir
30/03:00pm 21.2 SSE 14 17 1018.5 - - - - - - - - -
30/02:30pm 21.1 SSE 14 17 1018.7 - - - - - - - - -
30/02:20pm 21.2 SSE 13 - 1018.7 - - - - - - - - -
30/02:00pm 21.0 SSE 14 19 1018.9 - - - - - - - - -
30/01:30pm 21.0 SSE 15 19 1019.4 - - - - - - - - -
30/01:20pm 20.8 SSE 17 - 1019.5 - - - - - - - - -
30/01:00pm 21.4 SSE 14 18 1019.8 - - - - - - - - -
30/12:30pm 21.6 SSE 14 16 1020.1 - - - - - - - - -
30/12:20pm 21.5 SSE 12 - 1020.2 - - - - - - - - -
30/12:00pm 21.8 SE 13 16 1020.8 - - - - - - - - -
30/11:30am 21.4 SE 18 21 1021.4 - - - - - - - - -
30/11:20am 21.5 SE 18 19 1021.4 - - - - - - - - -
30/11:00am 22.2 SSE 16 18 1021.7 - - - - - - - - -
30/10:30am 22.4 SE 13 15 1021.9 - - - - - - - - -
30/10:20am 22.4 SE 13 - 1021.9 - - - - - - - - -
30/10:00am 22.5 SE 11 12 1021.9 - - - - - - - - -
30/09:30am 22.4 ESE 13 14 1022.0 - - - - - - - - -
30/09:20am 22.4 SE 14 - 1021.9 - - - - - - - - -
30/09:00am 22.4 ESE 14 16 1022.0 - - - - - - - - -
30/08:30am 22.7 ESE 11 13 1021.8 - - - - - - - - -
30/08:20am 22.6 ESE 10 - 1021.7 - - - - - - - - -
30/08:00am 22.6 E 8 10 1021.5 - - - - - - - - -
30/07:30am 22.8 E 9 10 1021.3 - - - - - - - - -
30/07:20am 22.7 E 10 - 1021.1 - - - - - - - - -
30/07:00am 22.6 ESE 7 9 1020.9 - - - - - - - - -
30/06:30am 22.3 SE 9 11 1020.7 - - - - - - - - -
30/06:20am 22.3 SE 10 - 1020.5 - - - - - - - - -
30/06:00am 22.4 SE 10 11 1020.4 - - - - - - - - -
30/05:30am 22.3 ESE 10 12 1020.1 - - - - - - - - -
30/05:20am 22.3 ESE 10 - 1019.9 - - - - - - - - -
30/05:00am 22.3 ESE 10 12 1019.8 - - - - - - - - -
30/04:30am 22.2 SE 11 13 1019.7 - - - - - - - - -
30/04:20am 22.2 SSE 10 - 1019.5 - - - - - - - - -
30/04:00am 22.1 SSE 10 13 1019.7 - - - - - - - - -
30/03:30am 22.0 SE 11 13 1019.6 - - - - - - - - -
30/03:20am 22.1 SE 11 - 1019.5 - - - - - - - - -
30/03:00am 22.0 SE 11 12 1019.6 - - - - - - - - -
30/02:30am 22.0 SE 12 14 1019.8 - - - - - - - - -
30/02:20am 22.0 SE 13 - 1019.7 - - - - - - - - -
30/02:00am 22.0 SE 13 15 1020.0 - - - - - - - - -
30/01:30am 22.0 SE 12 14 1020.4 - - - - - - - - -
30/01:20am 22.0 SE 13 - 1020.3 - - - - - - - - -
30/01:00am 21.9 SE 13 14 1020.5 - - - - - - - - -
30/12:30am 21.9 ESE 13 16 1020.9 - - - - - - - - -
30/12:20am 22.0 ESE 13 - 1020.8 - - - - - - - - -
30/12:00am 22.0 ESE 11 12 1020.9 - - - - - - - - -
 
Date/Time
EST
Temp

°C
Wind Pressure Rain
since 9am
mm
Weather Cloud Vis
km
Sea
Height
m
Swell
Dir
 
Speed
knots
Gust
knots
hPa Trend Height
m
Period
s
Dir
29/11:30pm 21.9 ESE 11 13 1020.9 - - - - - - - - -
29/11:20pm 21.9 ESE 11 - 1020.9 - - - - - - - - -
29/11:00pm 21.8 ESE 12 14 1021.0 - - - - - - - - -
29/10:30pm 21.7 ESE 12 14 1021.1 - - - - - - - - -
29/10:20pm 21.7 ESE 12 - 1021.0 - - - - - - - - -
29/10:00pm 21.6 ESE 13 15 1021.1 - - - - - - - - -
29/09:30pm 21.7 ESE 13 16 1020.9 - - - - - - - - -
29/09:20pm 21.6 ESE 14 - 1020.8 - - - - - - - - -
29/09:00pm 21.6 ESE 13 15 1020.9 - - - - - - - - -
29/08:30pm 21.7 ESE 14 16 1020.8 - - - - - - - - -
29/08:20pm 21.5 ESE 14 - 1020.7 - - - - - - - - -
29/08:00pm 21.6 ESE 13 15 1020.7 - - - - - - - - -
29/07:30pm 21.6 ESE 13 15 1020.5 - - - - - - - - -
29/07:20pm 21.5 ESE 14 - 1020.4 - - - - - - - - -
29/07:00pm 21.5 ESE 14 17 1020.3 - - - - - - - - -
29/06:30pm 21.3 ESE 14 17 1020.2 - - - - - - - - -
29/06:20pm 21.4 ESE 14 - 1020.0 - - - - - - - - -
29/06:00pm 21.3 SE 14 15 1020.1 - - - - - - - - -
29/05:30pm 21.4 SE 13 16 1019.9 - - - - - - - - -
29/05:20pm 21.4 SE 12 - 1019.8 - - - - - - - - -
29/05:00pm 21.5 SE 12 15 1019.8 - - - - - - - - -
29/04:30pm 21.6 SSE 10 14 1019.8 - - - - - - - - -
29/04:20pm 21.6 SSE 10 - 1019.5 - - - - - - - - -
29/04:00pm 21.5 SSE 11 14 1019.4 - - - - - - - - -
29/03:30pm 21.6 SSE 12 15 1019.4 - - - - - - - - -
29/03:20pm 21.6 SSE 11 - 1019.3 - - - - - - - - -
29/03:00pm 21.6 SSE 11 14 1019.4 - - - - - - - - -
29/02:30pm 21.6 SSE 11 14 1019.4 - - - - - - - - -
29/02:20pm 21.6 SSE 10 - 1019.3 - - - - - - - - -
29/02:00pm 21.6 SSE 11 13 1019.6 - - - - - - - - -
29/01:30pm 21.7 SSE 11 13 1020.0 - - - - - - - - -
29/01:20pm 21.7 SSE 11 - 1020.0 - - - - - - - - -
29/01:00pm 21.8 SSE 11 14 1020.4 - - - - - - - - -
29/12:30pm 21.8 SSE 11 15 1020.7 - - - - - - - - -
29/12:20pm 21.8 SSE 12 - 1020.7 - - - - - - - - -
29/12:00pm 21.8 SSE 12 16 1021.1 - - - - - - - - -
29/11:30am 21.9 SSE 12 16 1021.3 - - - - - - - - -
29/11:20am 21.9 SSE 13 - 1021.4 - - - - - - - - -
29/11:00am 22.0 SSE 12 15 1021.6 - - - - - - - - -
29/10:30am 22.1 SSE 12 15 1021.8 - - - - - - - - -
29/10:20am 22.1 SSE 12 - 1021.8 - - - - - - - - -
29/10:00am 22.2 SSE 13 16 1022.1 - - - - - - - - -
29/09:30am 22.1 SE 14 16 1022.2 - - - - - - - - -
29/09:20am 22.1 SE 13 - 1022.2 - - - - - - - - -
29/09:00am 22.2 SSE 12 15 1022.4 - - - - - - - - -
29/08:30am 22.1 SSE 11 14 1022.2 - - - - - - - - -
29/08:20am 22.0 SSE 11 - 1022.0 - - - - - - - - -
29/08:00am 21.9 SSE 12 14 1022.0 - - - - - - - - -
29/07:30am 21.8 SSE 12 15 1021.8 - - - - - - - - -
29/07:20am 21.9 SSE 10 - 1021.7 - - - - - - - - -
29/07:00am 21.7 SSE 9 11 1021.6 - - - - - - - - -
29/06:30am 21.5 SSE 8 10 1021.3 - - - - - - - - -
29/06:20am 21.5 SSE 7 - 1021.2 - - - - - - - - -
29/06:00am 21.4 SSE 7 8 1021.2 - - - - - - - - -
29/05:30am 21.5 SSE 7 9 1020.8 - - - - - - - - -
29/05:20am 21.4 SE 7 - 1020.6 - - - - - - - - -
29/05:00am 21.4 ESE 7 9 1020.7 - - - - - - - - -
29/04:30am 21.4 SE 8 10 1020.4 - - - - - - - - -
29/04:20am 21.4 SE 8 - 1020.3 - - - - - - - - -
29/04:00am 21.4 SE 8 10 1020.3 - - - - - - - - -
29/03:30am 21.4 SE 8 10 1020.2 - - - - - - - - -
29/03:20am 21.4 SE 8 - 1020.1 - - - - - - - - -
29/03:00am 21.5 SE 8 10 1020.1 - - - - - - - - -
29/02:30am 21.4 SSE 9 12 1020.1 - - - - - - - - -
29/02:20am 21.3 SSE 9 - 1019.9 - - - - - - - - -
29/02:00am 21.5 S 10 11 1020.0 - - - - - - - - -
29/01:30am 21.3 SSE 10 13 1020.2 - - - - - - - - -
29/01:20am 21.3 SSE 10 - 1020.2 - - - - - - - - -
29/01:00am 21.4 SSE 10 12 1020.4 - - - - - - - - -
29/12:30am 21.4 SSE 10 13 1020.5 - - - - - - - - -
29/12:20am 21.5 SSE 10 - 1020.5 - - - - - - - - -
29/12:00am 21.4 SSE 10 13 1020.6 - - - - - - - - -
 
Date/Time
EST
Temp

°C
Wind Pressure Rain
since 9am
mm
Weather Cloud Vis
km
Sea
Height
m
Swell
Dir
 
Speed
knots
Gust
knots
hPa Trend Height
m
Period
s
Dir
28/11:30pm 21.6 SE 11 16 1020.8 - - - - - - - - -
28/11:20pm 21.6 SE 11 - 1020.7 - - - - - - - - -
28/11:00pm 21.6 ESE 11 14 1021.0 - - - - - - - - -
28/10:30pm 21.7 ESE 12 14 1021.1 - - - - - - - - -
28/10:20pm 21.6 ESE 13 - 1021.1 - - - - - - - - -
28/10:00pm 21.8 ESE 12 14 1021.3 - - - - - - - - -
28/09:30pm 21.8 ESE 14 16 1021.3 - - - - - - - - -
28/09:20pm 21.8 ESE 13 - 1021.2 - - - - - - - - -
28/09:00pm 21.8 ESE 13 16 1021.2 - - - - - - - - -
28/08:30pm 21.7 SE 14 17 1021.0 - - - - - - - - -
28/08:20pm 21.7 ESE 15 - 1020.8 - - - - - - - - -
28/08:00pm 21.7 ESE 15 18 1020.9 - - - - - - - - -
28/07:30pm 21.7 SE 15 19 1020.7 - - - - - - - - -
28/07:20pm 21.8 ESE 16 - 1020.5 - - - - - - - - -
28/07:00pm 21.7 ESE 16 18 1020.3 - - - - - - - - -
28/06:30pm 21.8 SE 16 19 1020.1 - - - - - - - - -
28/06:20pm 21.8 SE 16 - 1020.0 - - - - - - - - -
28/06:00pm 21.8 ESE 16 18 1019.9 - - - - - - - - -
28/05:30pm 21.7 ESE 16 19 1019.8 - - - - - - - - -
28/05:20pm 21.9 SE 16 - 1019.7 - - - - - - - - -
28/05:00pm 21.9 SE 17 19 1019.7 - - - - - - - - -
28/04:30pm 22.1 SE 15 17 1019.6 - - - - - - - - -
28/04:20pm 22.0 SE 17 - 1019.5 - - - - - - - - -
28/04:00pm 22.1 SE 17 19 1019.4 - - - - - - - - -
28/03:30pm 22.1 SE 17 19 1019.2 - - - - - - - - -
28/03:20pm 22.1 SE 16 - 1019.2 - - - - - - - - -
28/03:00pm 22.0 SE 16 18 1019.3 - - - - - - - - -
28/02:30pm 22.1 SE 16 19 1019.4 - - - - - - - - -
28/02:20pm 22.0 SE 15 - 1019.4 - - - - - - - - -
28/02:00pm 22.1 SE 16 20 1019.5 - - - - - - - - -
28/01:30pm 22.1 SE 17 19 1019.8 - - - - - - - - -
28/01:20pm 22.2 SE 16 - 1019.9 - - - - - - - - -
28/01:00pm 22.1 SE 18 22 1020.2 - - - - - - - - -
28/12:30pm 22.2 SE 18 21 1020.6 - - - - - - - - -
28/12:20pm 22.2 SE 18 - 1020.6 - - - - - - - - -
28/12:00pm 22.1 SE 19 21 1021.0 - - - - - - - - -
28/11:30am 22.2 SE 19 21 1021.4 - - - - - - - - -
28/11:20am 22.3 SE 19 - 1021.4 - - - - - - - - -
28/11:00am 22.4 SE 18 21 1021.8 - - - - - - - - -
28/10:30am 22.2 SSE 15 18 1021.9 - - - - - - - - -
28/10:20am 22.2 SSE 15 - 1021.9 - - - - - - - - -
28/10:00am 22.1 SSE 14 17 1022.1 - - - - - - - - -
28/09:30am 22.7 SE 16 19 1022.3 - - - - - - - - -
28/09:20am 22.7 SE 16 - 1022.1 - - - - - - - - -
28/09:00am 22.8 SE 15 18 1022.1 - - - - - - - - -
28/08:30am 22.9 SE 14 17 1022.0 - - - - - - - - -
28/08:20am 22.8 SE 13 - 1021.7 - - - - - - - - -
28/08:00am 22.7 ESE 13 15 1021.7 - - - - - - - - -
28/07:30am 22.4 E 12 13 1021.4 - - - - - - - - -
28/07:20am 22.5 E 13 - 1021.2 - - - - - - - - -
28/07:00am 22.3 E 12 14 1021.1 - - - - - - - - -
28/06:30am 21.7 ESE 14 17 1020.8 - - - - - - - - -
28/06:20am 21.8 ESE 15 - 1020.7 - - - - - - - - -
28/06:00am 21.8 ESE 15 17 1020.6 - - - - - - - - -
28/05:30am 21.7 ESE 14 15 1020.4 - - - - - - - - -
28/05:20am 21.7 ESE 14 - 1020.2 - - - - - - - - -
28/05:00am 21.8 ESE 15 17 1020.1 - - - - - - - - -
28/04:30am 21.7 ESE 14 16 1020.0 - - - - - - - - -
28/04:20am 21.8 ESE 15 - 1019.9 - - - - - - - - -
28/04:00am 21.5 E 14 16 1019.8 - - - - - - - - -
28/03:30am 21.6 ESE 14 16 1019.9 - - - - - - - - -
28/03:20am 21.5 ESE 14 - 1019.8 - - - - - - - - -
28/03:00am 21.5 ESE 14 16 1019.9 - - - - - - - - -
28/02:30am 21.6 ESE 13 16 1020.1 - - - - - - - - -
28/02:20am 21.6 ESE 13 - 1020.1 - - - - - - - - -
28/02:00am 21.5 ESE 13 15 1020.5 - - - - - - - - -
28/01:30am 21.6 ESE 14 16 1020.8 - - - - - - - - -
28/01:20am 21.5 ESE 14 - 1020.8 - - - - - - - - -
28/01:00am 21.5 ESE 14 15 1021.1 - - - - - - - - -
28/12:30am 21.5 ESE 13 15 1021.2 - - - - - - - - -
28/12:20am 21.6 ESE 13 - 1021.2 - - - - - - - - -
28/12:00am 21.4 ESE 13 15 1021.4 - - - - - - - - -
 
Date/Time
EST
Temp

°C
Wind Pressure Rain
since 9am
mm
Weather Cloud Vis
km
Sea
Height
m
Swell
Dir
 
Speed
knots
Gust
knots
hPa Trend Height
m
Period
s
Dir
27/11:30pm 21.5 ESE 14 16 1021.6 - - - - - - - - -
27/11:20pm 21.5 ESE 14 - 1021.6 - - - - - - - - -
27/11:00pm 21.5 ESE 14 16 1021.8 - - - - - - - - -
27/10:30pm 21.5 ESE 13 16 1022.0 - - - - - - - - -
27/10:20pm 21.5 SE 14 - 1022.0 - - - - - - - - -
27/10:00pm 21.4 SE 13 15 1022.2 - - - - - - - - -
27/09:30pm 21.4 SE 14 17 1022.2 - - - - - - - - -
27/09:20pm 21.5 SE 15 - 1022.1 - - - - - - - - -
27/09:00pm 21.7 SE 15 17 1022.2 - - - - - - - - -
27/08:30pm 21.4 SE 15 18 1022.0 - - - - - - - - -
27/08:20pm 21.4 SSE 15 - 1021.8 - - - - - - - - -
27/08:00pm 21.4 SSE 14 18 1021.8 - - - - - - - - -
27/07:30pm 21.3 SSE 14 18 1021.5 - - - - - - - - -
27/07:20pm 21.3 SSE 14 - 1021.3 - - - - - - - - -
27/07:00pm 21.3 SSE 13 16 1021.2 - - - - - - - - -
27/06:30pm 21.5 SSE 13 16 1020.7 - - - - - - - - -
27/06:20pm 21.3 SSE 15 - 1020.4 - - - - - - - - -
27/06:00pm 21.4 SSE 13 17 1020.2 - - - - - - - - -
27/05:30pm 21.5 SSE 14 17 1019.9 - - - - - - - - -
27/05:20pm 21.4 SSE 17 - 1019.8 - - - - - - - - -
27/05:00pm 21.5 SSE 17 19 1019.8 - - - - - - - - -
27/04:30pm 21.8 S 18 20 1019.7 - - - - - - - - -
27/04:20pm 21.6 S 17 - 1019.6 - - - - - - - - -
27/04:00pm 21.7 S 17 19 1019.6 - - - - - - - - -
27/03:30pm 21.6 S 17 19 1019.6 - - - - - - - - -
27/03:20pm 21.8 S 17 - 1019.6 - - - - - - - - -

Other Formats:

Comma delimited format used in spreadsheet applications
http://www.bom.gov.au/fwo/IDQ60701/IDQ60701.94371.axf

JavaScript Object Notation format (JSON) in row-major order
http://www.bom.gov.au/fwo/IDQ60701/IDQ60701.94371.json